Time;durP1;ratioP1;P1;durP2;ratioP2;P2;SDS_P1;SDS_P2;PMS_P1;PMS_P2;Temp;Humidity;BMP_temperature;BMP_pressure;BME280_temperature;BME280_humidity;BME280_pressure;Samples;Min_cycle;Max_cycle;Signal;HPM_P1;HPM_P2
2023/02/22 00:00:26;;;;;;;1.85;1.25;;;11.00;99.90;;;;;;4983124;28;20096;-77
2023/02/22 00:02:58;;;;;;;1.35;1.02;;;11.00;99.90;;;;;;4992114;28;20556;-77
2023/02/22 00:05:26;;;;;;;1.58;1.48;;;11.00;99.90;;;;;;5001250;28;20099;-77
2023/02/22 00:07:55;;;;;;;0.32;0.32;;;10.90;99.90;;;;;;4997124;28;20048;-79
2023/02/22 00:10:22;;;;;;;0.68;0.68;;;10.90;99.90;;;;;;4997404;28;20893;-78
2023/02/22 00:12:50;;;;;;;0.70;0.70;;;10.90;99.90;;;;;;5000894;28;20030;-79
2023/02/22 00:15:18;;;;;;;0.70;0.70;;;10.90;99.90;;;;;;4995009;28;20022;-78
2023/02/22 00:17:44;;;;;;;1.40;1.33;;;10.90;99.90;;;;;;4998969;28;20052;-79
2023/02/22 00:20:13;;;;;;;0.85;0.50;;;10.90;99.90;;;;;;4997554;28;20575;-78
2023/02/22 00:22:40;;;;;;;2.25;1.27;;;10.90;99.90;;;;;;4998138;28;20213;-78
2023/02/22 00:25:06;;;;;;;6.80;2.30;;;10.90;99.90;;;;;;5004153;28;20037;-78
2023/02/22 00:27:32;;;;;;;0.33;0.33;;;10.90;99.90;;;;;;5001368;28;20053;-78
2023/02/22 00:29:58;;;;;;;3.42;2.33;;;10.90;99.90;;;;;;5002029;28;20714;-78
2023/02/22 00:32:24;;;;;;;0.90;0.90;;;10.90;99.90;;;;;;5000679;28;20030;-79
2023/02/22 00:34:52;;;;;;;1.35;1.20;;;10.90;99.90;;;;;;4997486;28;20038;-79
2023/02/22 00:37:18;;;;;;;1.15;1.10;;;10.90;99.90;;;;;;4981869;28;20034;-79
2023/02/22 00:39:47;;;;;;;0.80;0.80;;;10.80;99.90;;;;;;4997351;28;20022;-79
2023/02/22 00:42:13;;;;;;;0.28;0.28;;;10.80;99.90;;;;;;4992743;28;20434;-79
2023/02/22 00:44:39;;;;;;;0.57;0.57;;;10.80;99.90;;;;;;5000957;28;20082;-80
2023/02/22 00:47:05;;;;;;;0.63;0.63;;;10.80;99.90;;;;;;4987479;28;20076;-80
2023/02/22 00:49:30;;;;;;;0.75;0.75;;;10.80;99.90;;;;;;4998380;28;20056;-78
2023/02/22 00:51:56;;;;;;;0.63;0.63;;;10.70;99.90;;;;;;4998410;28;20483;-79
2023/02/22 00:54:22;;;;;;;0.57;0.57;;;10.70;99.90;;;;;;4997330;28;20121;-79
2023/02/22 00:56:50;;;;;;;1.63;1.55;;;10.70;99.90;;;;;;5001030;28;20030;-79
2023/02/22 00:59:16;;;;;;;0.45;0.40;;;10.80;99.90;;;;;;4996774;28;20584;-79
2023/02/22 01:01:44;;;;;;;0.82;0.82;;;10.80;99.90;;;;;;5000102;28;20026;-79
2023/02/22 01:04:10;;;;;;;1.65;1.55;;;10.70;99.90;;;;;;4996469;28;20084;-78
2023/02/22 01:06:36;;;;;;;1.05;1.00;;;10.70;99.90;;;;;;5000960;28;20038;-79
2023/02/22 01:09:02;;;;;;;4.43;2.42;;;10.70;99.90;;;;;;4992002;28;20053;-79
2023/02/22 01:11:29;;;;;;;0.93;0.93;;;10.70;99.90;;;;;;4976368;28;20034;-79
2023/02/22 01:13:56;;;;;;;1.15;1.08;;;10.60;99.90;;;;;;4995985;28;20038;-79
2023/02/22 01:16:22;;;;;;;0.98;0.73;;;10.60;99.90;;;;;;4998123;28;20057;-79
2023/02/22 01:18:48;;;;;;;1.25;1.17;;;10.70;99.90;;;;;;4996837;28;20137;-79
2023/02/22 01:21:14;;;;;;;0.98;0.93;;;10.70;99.90;;;;;;5000079;28;20033;-79
2023/02/22 01:23:40;;;;;;;1.07;1.07;;;10.60;99.90;;;;;;5007565;28;20401;-79
2023/02/22 01:26:05;;;;;;;1.40;1.23;;;10.70;99.90;;;;;;5001975;28;20038;-79
2023/02/22 01:28:32;;;;;;;0.63;0.63;;;10.60;99.90;;;;;;5002815;28;20070;-79
2023/02/22 01:30:57;;;;;;;1.67;1.17;;;10.60;99.90;;;;;;4997284;28;20034;-79
2023/02/22 01:33:24;;;;;;;1.13;1.10;;;10.60;99.90;;;;;;4996966;28;20750;-79
2023/02/22 01:35:50;;;;;;;0.45;0.45;;;10.50;99.90;;;;;;5014796;28;20025;-78
2023/02/22 01:38:16;;;;;;;1.08;1.08;;;10.50;99.90;;;;;;5007482;28;20083;-79
2023/02/22 01:40:46;;;;;;;2.43;1.20;;;10.50;99.90;;;;;;5013319;28;20053;-79
2023/02/22 01:43:19;;;;;;;8.85;1.30;;;10.40;99.90;;;;;;4978492;28;20297;-79
2023/02/22 01:46:02;;;;;;;2.15;0.85;;;10.50;99.90;;;;;;5010074;28;20035;-79
2023/02/22 01:48:43;;;;;;;0.88;0.88;;;10.50;99.90;;;;;;4994961;28;20052;-79
2023/02/22 01:51:16;;;;;;;1.10;1.08;;;10.40;99.90;;;;;;4998639;28;20014;-79
2023/02/22 01:53:46;;;;;;;2.38;2.25;;;10.40;99.90;;;;;;4999897;28;20038;-79
2023/02/22 01:56:12;;;;;;;2.17;2.05;;;10.30;99.90;;;;;;5002496;28;20026;-79
2023/02/22 01:58:41;;;;;;;1.42;1.27;;;10.40;99.90;;;;;;4998280;28;20029;-79
2023/02/22 02:01:08;;;;;;;0.40;0.40;;;10.40;99.90;;;;;;5012192;28;20052;-79
2023/02/22 02:03:37;;;;;;;1.98;0.90;;;10.30;99.90;;;;;;4997855;28;20112;-79
2023/02/22 02:06:07;;;;;;;2.38;2.00;;;10.30;99.90;;;;;;5001732;28;20080;-79
2023/02/22 02:08:48;;;;;;;0.63;0.63;;;10.40;99.90;;;;;;4990280;28;20042;-80
2023/02/22 02:11:17;;;;;;;1.48;1.38;;;10.20;99.90;;;;;;4997516;28;20026;-79
2023/02/22 02:13:43;;;;;;;1.02;1.02;;;10.30;99.90;;;;;;5007516;28;20030;-78
2023/02/22 02:16:09;;;;;;;3.78;1.73;;;10.40;99.90;;;;;;4995231;28;20037;-77
2023/02/22 02:18:35;;;;;;;0.15;0.15;;;10.30;99.90;;;;;;5000937;28;20030;-78
2023/02/22 02:21:13;;;;;;;8.02;2.20;;;10.30;99.90;;;;;;5008794;28;20044;-78
2023/02/22 02:24:18;;;;;;;2.05;0.82;;;10.30;99.90;;;;;;5000922;28;20464;-78
2023/02/22 02:27:01;;;;;;;3.78;1.17;;;10.30;99.90;;;;;;4998764;28;20044;-77
2023/02/22 02:29:55;;;;;;;4.95;2.92;;;10.20;99.90;;;;;;5001454;28;20026;-77
2023/02/22 02:32:23;;;;;;;1.25;1.15;;;10.30;99.90;;;;;;5001893;28;20161;-78
2023/02/22 02:35:20;;;;;;;1.02;1.00;;;10.40;99.90;;;;;;4996462;28;20050;-78
2023/02/22 02:37:45;;;;;;;;;;;10.40;99.90;;;;;;4999592;28;20052;-78
2023/02/22 02:40:35;;;;;;;4.10;3.33;;;10.40;99.90;;;;;;5002912;28;20664;-79
2023/02/22 02:43:20;;;;;;;1.20;1.20;;;10.40;99.90;;;;;;5000026;28;20129;-78
2023/02/22 02:46:07;;;;;;;2.75;2.25;;;10.30;99.90;;;;;;5001381;28;20026;-79
2023/02/22 02:48:35;;;;;;;1.75;1.65;;;10.30;99.90;;;;;;5004460;28;20045;-78
2023/02/22 02:51:04;;;;;;;1.85;1.35;;;10.30;99.90;;;;;;5006908;28;20559;-78
2023/02/22 02:53:35;;;;;;;4.57;2.88;;;10.40;99.90;;;;;;5004204;28;20033;-78
2023/02/22 02:56:00;;;;;;;5.85;2.28;;;10.40;99.90;;;;;;4999232;28;20136;-78
2023/02/22 02:58:26;;;;;;;1.83;1.70;;;10.40;99.90;;;;;;5006880;28;20741;-78
2023/02/22 03:00:55;;;;;;;2.05;1.88;;;10.30;99.90;;;;;;5004571;28;20025;-77
2023/02/22 03:03:42;;;;;;;1.65;1.55;;;10.30;99.90;;;;;;5002839;28;20133;-77
2023/02/22 03:06:20;;;;;;;3.67;1.50;;;10.30;99.90;;;;;;5003667;28;20025;-78
2023/02/22 03:08:55;;;;;;;1.58;1.48;;;10.30;99.90;;;;;;5008203;28;20034;-79
2023/02/22 03:11:31;;;;;;;0.88;0.88;;;10.40;99.90;;;;;;5009477;28;20077;-80
2023/02/22 03:14:15;;;;;;;2.28;1.58;;;10.30;99.90;;;;;;4999909;28;20039;-80
2023/02/22 03:17:22;;;;;;;2.60;1.73;;;10.30;99.90;;;;;;5007729;28;20030;-79
2023/02/22 03:19:55;;;;;;;1.25;1.15;;;10.30;99.90;;;;;;5002188;28;20030;-80
2023/02/22 03:22:36;;;;;;;1.10;1.10;;;10.30;99.90;;;;;;5001109;28;20045;-80
2023/02/22 03:25:07;;;;;;;1.38;1.35;;;10.30;99.90;;;;;;4997212;28;20030;-80
2023/02/22 03:27:42;;;;;;;6.25;1.65;;;10.30;99.90;;;;;;4999038;28;20041;-80
2023/02/22 03:30:25;;;;;;;1.00;1.00;;;10.30;99.90;;;;;;5006548;28;20045;-80
2023/02/22 03:32:58;;;;;;;2.80;2.53;;;10.30;99.90;;;;;;4996512;28;20034;-80
2023/02/22 03:35:29;;;;;;;3.63;1.83;;;10.30;99.90;;;;;;4991781;28;20714;-80
2023/02/22 03:38:01;;;;;;;1.48;1.38;;;10.30;99.90;;;;;;5000702;28;20033;-79
2023/02/22 03:40:34;;;;;;;9.32;3.22;;;10.20;99.90;;;;;;4992912;28;20029;-78
2023/02/22 03:43:05;;;;;;;2.20;2.05;;;10.20;99.90;;;;;;4994078;28;20034;-79
2023/02/22 03:45:33;;;;;;;3.40;3.20;;;10.30;99.90;;;;;;4999508;28;20141;-79
2023/02/22 03:48:22;;;;;;;4.55;1.83;;;10.20;99.90;;;;;;4978994;28;20049;-79
2023/02/22 03:50:49;;;;;;;1.20;1.05;;;10.20;99.90;;;;;;4996288;28;20113;-79
2023/02/22 03:53:17;;;;;;;0.75;0.75;;;10.20;99.90;;;;;;5008489;28;20022;-77
2023/02/22 03:55:43;;;;;;;1.48;1.05;;;10.20;99.90;;;;;;4997845;28;20036;-78
2023/02/22 03:58:12;;;;;;;0.80;0.80;;;10.30;99.90;;;;;;4981480;28;20034;-78
2023/02/22 04:00:43;;;;;;;4.97;3.55;;;10.20;99.90;;;;;;4998825;28;20034;-78
2023/02/22 04:03:09;;;;;;;0.95;0.95;;;10.10;99.90;;;;;;5004481;28;20064;-78
2023/02/22 04:05:35;;;;;;;5.90;2.63;;;10.20;99.90;;;;;;4999504;28;20025;-78
2023/02/22 04:08:00;;;;;;;3.50;2.42;;;10.10;99.90;;;;;;4983698;28;20049;-77
2023/02/22 04:10:26;;;;;;;1.60;0.90;;;10.10;99.90;;;;;;4996708;28;20038;-78
2023/02/22 04:12:52;;;;;;;1.77;1.60;;;10.20;99.90;;;;;;4998678;28;20109;-78
2023/02/22 04:15:22;;;;;;;2.33;2.20;;;10.10;99.90;;;;;;4969140;28;20033;-78
2023/02/22 04:17:48;;;;;;;0.57;0.57;;;10.10;99.90;;;;;;4996822;28;20029;-78
2023/02/22 04:20:18;;;;;;;0.75;0.75;;;10.20;99.90;;;;;;4998022;28;20707;-78
2023/02/22 04:22:45;;;;;;;2.17;1.65;;;10.20;99.90;;;;;;5000513;28;20034;-78
2023/02/22 04:25:10;;;;;;;0.15;0.15;;;10.10;99.90;;;;;;5004608;28;20105;-78
2023/02/22 04:27:36;;;;;;;1.00;0.90;;;10.10;99.90;;;;;;5006355;28;20235;-79
2023/02/22 04:30:02;;;;;;;1.27;1.23;;;10.20;99.90;;;;;;5005370;28;20025;-79
2023/02/22 04:32:28;;;;;;;1.02;0.68;;;10.20;99.90;;;;;;5006801;28;20034;-79
2023/02/22 04:34:53;;;;;;;0.63;0.63;;;10.10;99.90;;;;;;4997922;28;20061;-79
2023/02/22 04:37:19;;;;;;;0.57;0.57;;;10.10;99.90;;;;;;5011032;28;20401;-79
2023/02/22 04:39:45;;;;;;;1.05;0.95;;;10.10;99.90;;;;;;4995607;28;20054;-79
2023/02/22 04:42:10;;;;;;;0.88;0.82;;;10.10;99.90;;;;;;4996647;28;20105;-79
2023/02/22 04:44:36;;;;;;;0.43;0.43;;;10.00;99.90;;;;;;4996418;28;20857;-77
2023/02/22 04:47:02;;;;;;;1.27;1.17;;;10.00;99.90;;;;;;4997858;28;20034;-77
2023/02/22 04:49:27;;;;;;;2.25;1.50;;;10.00;99.90;;;;;;4997668;28;20100;-78
2023/02/22 04:51:53;;;;;;;0.40;0.40;;;10.00;99.90;;;;;;5001531;28;20029;-77
2023/02/22 04:54:19;;;;;;;1.13;1.10;;;10.10;99.90;;;;;;5000793;28;20095;-78
2023/02/22 04:56:45;;;;;;;0.50;0.50;;;10.10;99.90;;;;;;5001303;28;20500;-77
2023/02/22 04:59:11;;;;;;;4.97;1.47;;;10.10;99.90;;;;;;5009825;28;20022;-77
2023/02/22 05:01:38;;;;;;;0.68;0.68;;;10.20;99.90;;;;;;5009881;28;20037;-77
2023/02/22 05:04:06;;;;;;;1.13;1.00;;;10.10;99.90;;;;;;4996209;28;20030;-78
2023/02/22 05:06:32;;;;;;;0.85;0.85;;;10.00;99.90;;;;;;5011654;28;20033;-78
2023/02/22 05:08:58;;;;;;;0.30;0.30;;;10.00;99.90;;;;;;4998541;28;20122;-79
2023/02/22 05:11:23;;;;;;;2.15;2.05;;;9.90;99.90;;;;;;5007205;28;20093;-78
2023/02/22 05:13:49;;;;;;;0.90;0.88;;;9.90;99.90;;;;;;5002560;28;20125;-78
2023/02/22 05:16:15;;;;;;;5.85;0.95;;;9.90;99.90;;;;;;4994452;28;20126;-79
2023/02/22 05:18:41;;;;;;;0.38;0.38;;;9.80;99.90;;;;;;5001791;28;20065;-78
2023/02/22 05:21:07;;;;;;;1.75;1.65;;;9.90;99.90;;;;;;5003575;28;20101;-78
2023/02/22 05:23:33;;;;;;;1.93;1.70;;;9.90;99.90;;;;;;5004488;28;20033;-79
2023/02/22 05:25:59;;;;;;;0.40;0.40;;;9.80;99.90;;;;;;5004705;28;20038;-79
2023/02/22 05:28:26;;;;;;;0.82;0.77;;;9.80;99.90;;;;;;5007238;28;20484;-79
2023/02/22 05:30:51;;;;;;;3.30;1.73;;;9.80;99.90;;;;;;5019260;28;20079;-78
2023/02/22 05:33:17;;;;;;;0.98;0.98;;;9.80;99.90;;;;;;5003796;28;20510;-79
2023/02/22 05:35:43;;;;;;;1.10;1.10;;;9.70;99.90;;;;;;5004931;28;20045;-78
2023/02/22 05:38:13;;;;;;;1.52;1.42;;;9.70;99.90;;;;;;5021836;28;20025;-78
2023/02/22 05:40:40;;;;;;;0.82;0.82;;;9.70;99.90;;;;;;5011649;28;20026;-78
2023/02/22 05:43:06;;;;;;;1.58;1.48;;;9.60;99.90;;;;;;5016374;28;20509;-78
2023/02/22 05:45:32;;;;;;;0.93;0.93;;;9.60;99.90;;;;;;5012427;28;20045;-77
2023/02/22 05:47:57;;;;;;;6.43;3.25;;;9.60;99.90;;;;;;4999772;28;20033;-77
2023/02/22 05:50:23;;;;;;;2.03;1.90;;;9.60;99.90;;;;;;5002169;28;20033;-76
2023/02/22 05:52:49;;;;;;;2.77;2.57;;;9.70;99.90;;;;;;5006604;28;20052;-76
2023/02/22 05:55:18;;;;;;;5.15;3.50;;;9.70;99.90;;;;;;5003901;28;20025;-77
2023/02/22 05:57:44;;;;;;;3.35;2.90;;;9.70;99.90;;;;;;5002430;28;20030;-76
2023/02/22 06:00:26;;;;;;;2.50;2.30;;;9.90;99.90;;;;;;5005259;28;20030;-77
2023/02/22 06:03:04;;;;;;;0.85;0.77;;;9.90;99.90;;;;;;4985507;28;20406;-77
2023/02/22 06:05:30;;;;;;;2.00;1.92;;;9.80;99.90;;;;;;5002421;28;20103;-78
2023/02/22 06:07:57;;;;;;;2.53;2.30;;;9.80;99.90;;;;;;4996650;28;20054;-79
2023/02/22 06:10:23;;;;;;;1.67;1.58;;;9.90;99.90;;;;;;4990285;28;20940;-79
2023/02/22 06:12:50;;;;;;;3.05;2.13;;;9.90;99.90;;;;;;4984276;28;20062;-79
2023/02/22 06:15:17;;;;;;;1.20;1.17;;;10.00;99.90;;;;;;5002662;28;20036;-78
2023/02/22 06:17:43;;;;;;;3.47;1.23;;;9.90;99.90;;;;;;5005873;28;20030;-79
2023/02/22 06:20:11;;;;;;;1.53;1.47;;;10.00;99.90;;;;;;5014310;28;20473;-79
2023/02/22 06:22:39;;;;;;;0.43;0.43;;;10.00;99.90;;;;;;5001161;28;20300;-78
2023/02/22 06:25:06;;;;;;;8.65;1.35;;;10.00;99.90;;;;;;4977759;28;20367;-79
2023/02/22 06:27:32;;;;;;;2.47;2.25;;;10.00;99.90;;;;;;4997264;28;20045;-78
2023/02/22 06:30:00;;;;;;;0.28;0.28;;;10.00;99.90;;;;;;5016700;28;20414;-78
2023/02/22 06:32:25;;;;;;;0.85;0.85;;;10.00;99.90;;;;;;5007105;28;20056;-79
2023/02/22 06:34:51;;;;;;;0.80;0.80;;;10.00;99.90;;;;;;5000050;28;20566;-79
2023/02/22 06:37:17;;;;;;;0.93;0.93;;;9.90;99.90;;;;;;5005381;28;20037;-79
2023/02/22 06:39:42;;;;;;;0.60;0.60;;;9.90;99.90;;;;;;5022266;28;20133;-79
2023/02/22 06:42:08;;;;;;;1.00;0.93;;;9.90;99.90;;;;;;5008479;28;20453;-79
2023/02/22 06:44:34;;;;;;;1.08;1.08;;;9.90;99.90;;;;;;5007692;28;20050;-78
2023/02/22 06:46:59;;;;;;;3.13;0.98;;;9.90;99.90;;;;;;5011091;28;20513;-79
2023/02/22 06:49:26;;;;;;;1.15;1.15;;;9.90;99.90;;;;;;5012227;28;20615;-84
2023/02/22 06:51:52;;;;;;;0.82;0.82;;;9.90;99.90;;;;;;4983194;28;20565;-84
2023/02/22 06:54:18;;;;;;;0.47;0.47;;;10.00;99.90;;;;;;5003972;28;20041;-83
2023/02/22 06:56:44;;;;;;;4.53;2.20;;;10.00;99.90;;;;;;5008115;28;20618;-82
2023/02/22 06:59:10;;;;;;;2.67;1.80;;;9.90;99.90;;;;;;4991526;28;20036;-83
2023/02/22 07:01:35;;;;;;;2.25;2.08;;;9.70;99.90;;;;;;5000589;28;20492;-80
2023/02/22 07:04:01;;;;;;;0.77;0.77;;;9.80;99.90;;;;;;5009430;28;20037;-80
2023/02/22 07:06:27;;;;;;;1.73;1.63;;;9.80;99.90;;;;;;4995197;28;20055;-81
2023/02/22 07:08:53;;;;;;;0.93;0.93;;;9.90;99.90;;;;;;5016838;28;20064;-83
2023/02/22 07:11:19;;;;;;;0.90;0.90;;;10.00;99.90;;;;;;4985579;28;20025;-82
2023/02/22 07:13:45;;;;;;;0.68;0.68;;;10.00;99.90;;;;;;5008206;28;20045;-82
2023/02/22 07:16:10;;;;;;;1.88;1.77;;;10.00;99.90;;;;;;4980200;28;20030;-82
2023/02/22 07:18:37;;;;;;;3.83;3.35;;;10.00;99.90;;;;;;4978053;28;20470;-81
2023/02/22 07:21:03;;;;;;;2.15;2.05;;;10.00;99.90;;;;;;4994168;28;20031;-82
2023/02/22 07:23:29;;;;;;;3.63;1.27;;;10.00;99.90;;;;;;5003078;28;20033;-80
2023/02/22 07:25:55;;;;;;;2.50;2.30;;;10.00;99.90;;;;;;4999623;28;20030;-81
2023/02/22 07:28:21;;;;;;;2.33;1.95;;;10.10;99.90;;;;;;5011446;28;20433;-82
2023/02/22 07:30:46;;;;;;;0.60;0.60;;;10.10;99.90;;;;;;5011754;28;20037;-81
2023/02/22 07:33:12;;;;;;;2.78;1.73;;;10.10;99.90;;;;;;5009690;28;20022;-81
2023/02/22 07:35:49;;;;;;;0.75;0.75;;;10.10;99.90;;;;;;5002562;28;20029;-80
2023/02/22 07:38:16;;;;;;;11.52;8.10;;;10.00;99.90;;;;;;4991421;28;20409;-81
2023/02/22 07:40:42;;;;;;;7.25;4.45;;;10.00;99.90;;;;;;5011481;28;20061;-80
2023/02/22 07:43:20;;;;;;;1.23;1.13;;;10.10;99.90;;;;;;5000918;28;20054;-80
2023/02/22 07:45:47;;;;;;;0.63;0.63;;;10.10;99.90;;;;;;4995034;28;20120;-80
2023/02/22 07:48:14;;;;;;;;;;;10.00;99.90;;;;;;5007690;28;20034;-82
2023/02/22 07:50:40;;;;;;;1.27;0.77;;;10.00;99.90;;;;;;5003990;28;19915;-81
2023/02/22 07:53:10;;;;;;;0.98;0.95;;;10.10;99.90;;;;;;5006754;28;20061;-80
2023/02/22 07:55:36;;;;;;;1.85;1.75;;;10.10;99.90;;;;;;5004302;28;20033;-80
2023/02/22 07:58:06;;;;;;;1.23;1.15;;;10.10;99.90;;;;;;4997156;28;20029;-81
2023/02/22 08:00:38;;;;;;;3.10;2.13;;;10.10;99.90;;;;;;5010241;28;20042;-81
2023/02/22 08:03:07;;;;;;;1.63;1.52;;;10.00;99.90;;;;;;5006719;28;20574;-81
2023/02/22 08:05:34;;;;;;;1.10;1.00;;;10.10;99.90;;;;;;5011087;28;20909;-83
2023/02/22 08:08:00;;;;;;;2.38;1.88;;;10.00;99.90;;;;;;5010208;28;20065;-80
2023/02/22 08:10:26;;;;;;;5.22;2.42;;;10.00;99.90;;;;;;5000250;28;20033;-81
2023/02/22 08:12:52;;;;;;;0.60;0.60;;;10.00;99.90;;;;;;5003746;28;20030;-80
2023/02/22 08:15:23;;;;;;;9.27;4.47;;;10.00;99.90;;;;;;4996777;28;20042;-81
2023/02/22 08:17:48;;;;;;;1.88;1.77;;;10.00;99.90;;;;;;4997270;28;20026;-81
2023/02/22 08:20:14;;;;;;;0.38;0.38;;;10.10;99.90;;;;;;5003117;28;20030;-81
2023/02/22 08:22:43;;;;;;;5.35;3.47;;;10.00;99.90;;;;;;4995769;28;20072;-80
2023/02/22 08:25:09;;;;;;;1.95;1.33;;;10.00;99.90;;;;;;5007001;28;20048;-80
2023/02/22 08:27:34;;;;;;;3.13;1.80;;;10.00;99.90;;;;;;5010381;28;20498;-81
2023/02/22 08:30:00;;;;;;;1.40;1.30;;;10.10;99.90;;;;;;5013394;28;20018;-81
2023/02/22 08:32:26;;;;;;;1.35;1.08;;;10.10;99.90;;;;;;5011352;28;20111;-79
2023/02/22 08:34:52;;;;;;;0.70;0.70;;;10.10;99.90;;;;;;5009479;28;20026;-80
2023/02/22 08:37:18;;;;;;;1.30;1.20;;;10.10;99.90;;;;;;5013749;28;20049;-81
2023/02/22 08:39:44;;;;;;;1.55;1.45;;;10.10;99.90;;;;;;5013336;28;20022;-81
2023/02/22 08:42:10;;;;;;;0.60;0.60;;;10.10;99.90;;;;;;5011623;28;20489;-80
2023/02/22 08:44:37;;;;;;;0.87;0.87;;;10.10;99.90;;;;;;5002503;28;20495;-81
2023/02/22 08:47:03;;;;;;;;;;;10.20;99.90;;;;;;5011042;28;20048;-81
2023/02/22 08:49:29;;;;;;;3.03;2.20;;;10.20;99.90;;;;;;5015964;28;19913;-80
2023/02/22 08:51:54;;;;;;;0.63;0.63;;;10.20;99.90;;;;;;5010893;28;20280;-81
2023/02/22 08:54:21;;;;;;;0.55;0.55;;;10.20;99.90;;;;;;5013175;28;20615;-80
2023/02/22 08:56:47;;;;;;;1.00;0.80;;;10.20;99.90;;;;;;5000829;28;20030;-81
2023/02/22 08:59:13;;;;;;;0.67;0.67;;;10.30;99.90;;;;;;4994737;28;20033;-81
2023/02/22 09:01:39;;;;;;;0.65;0.65;;;10.40;99.90;;;;;;5006495;28;20264;-80
2023/02/22 09:04:05;;;;;;;2.88;2.67;;;10.40;99.90;;;;;;4999748;28;20096;-80
2023/02/22 09:06:30;;;;;;;4.13;1.83;;;10.40;99.90;;;;;;4998850;28;20105;-81
2023/02/22 09:08:56;;;;;;;3.10;2.25;;;10.40;99.90;;;;;;5011303;28;20037;-80
2023/02/22 09:11:22;;;;;;;0.70;0.70;;;10.30;99.90;;;;;;5010387;28;20403;-81
2023/02/22 09:13:47;;;;;;;1.33;1.33;;;10.30;99.90;;;;;;4998338;28;20060;-81
2023/02/22 09:16:13;;;;;;;1.80;1.60;;;10.30;99.90;;;;;;5001362;28;20026;-81
2023/02/22 09:18:39;;;;;;;2.05;1.95;;;10.20;99.90;;;;;;5003056;28;20491;-80
2023/02/22 09:21:05;;;;;;;1.13;1.13;;;10.20;99.90;;;;;;5005328;28;20482;-80
2023/02/22 09:23:31;;;;;;;2.80;1.80;;;10.30;99.90;;;;;;5015534;28;20084;-80
2023/02/22 09:25:58;;;;;;;1.48;0.57;;;10.40;99.90;;;;;;4986770;28;20824;-81
2023/02/22 09:28:25;;;;;;;2.70;1.95;;;10.30;99.90;;;;;;5015166;28;20121;-82
2023/02/22 09:30:51;;;;;;;;;;;10.30;99.90;;;;;;5005004;28;20026;-80
2023/02/22 09:33:20;;;;;;;0.37;0.37;;;10.40;99.90;;;;;;5011724;28;19909;-81
2023/02/22 09:35:48;;;;;;;0.73;0.65;;;10.50;99.90;;;;;;5003484;28;20268;-80
2023/02/22 09:38:21;;;;;;;1.08;1.08;;;10.60;99.90;;;;;;5002803;28;20029;-82
2023/02/22 09:40:53;;;;;;;1.33;1.20;;;10.60;99.90;;;;;;5002416;28;20064;-81
2023/02/22 09:43:46;;;;;;;1.65;1.50;;;10.60;99.90;;;;;;5013358;28;20076;-81
2023/02/22 09:46:37;;;;;;;2.42;1.85;;;10.40;99.90;;;;;;4997465;28;20022;-81
2023/02/22 09:49:12;;;;;;;1.52;1.42;;;10.60;99.90;;;;;;5005603;28;20046;-80
2023/02/22 09:51:44;;;;;;;2.67;2.17;;;10.50;99.90;;;;;;5017055;28;20370;-80
2023/02/22 09:54:36;;;;;;;1.02;0.95;;;10.60;99.90;;;;;;5013581;28;20170;-80
2023/02/22 09:57:15;;;;;;;2.28;1.85;;;10.70;99.90;;;;;;4974838;28;20033;-81
2023/02/22 09:59:55;;;;;;;0.80;0.80;;;10.60;99.90;;;;;;5003208;28;20493;-80
2023/02/22 10:02:33;;;;;;;1.75;1.65;;;10.80;99.90;;;;;;5003538;28;20033;-80
2023/02/22 10:05:04;;;;;;;4.07;2.08;;;10.70;99.90;;;;;;4991714;28;20084;-80
2023/02/22 10:07:42;;;;;;;2.97;2.40;;;10.80;99.90;;;;;;4993145;28;20041;-81
2023/02/22 10:10:17;;;;;;;5.10;1.90;;;10.70;99.90;;;;;;5004665;28;20057;-81
2023/02/22 10:12:49;;;;;;;0.80;0.80;;;10.90;99.90;;;;;;5009665;28;20017;-81
2023/02/22 10:15:26;;;;;;;0.90;0.90;;;11.10;99.90;;;;;;5008002;28;20029;-81
2023/02/22 10:18:13;;;;;;;0.70;0.70;;;11.20;99.90;;;;;;5007981;28;20026;-81
2023/02/22 10:20:49;;;;;;;1.13;1.13;;;11.30;99.90;;;;;;4992944;28;20033;-80
2023/02/22 10:23:40;;;;;;;4.00;1.90;;;11.30;99.90;;;;;;5015730;28;20536;-81
2023/02/22 10:26:22;;;;;;;2.25;1.83;;;11.30;99.90;;;;;;5014958;28;20021;-81
2023/02/22 10:29:00;;;;;;;2.20;1.35;;;11.10;99.90;;;;;;4975305;28;20270;-81
2023/02/22 10:31:39;;;;;;;1.85;1.30;;;10.90;99.90;;;;;;4998782;28;20405;-82
2023/02/22 10:34:13;;;;;;;0.73;0.73;;;11.00;99.90;;;;;;4993631;28;20497;-80
2023/02/22 10:36:39;;;;;;;2.50;1.58;;;11.40;99.90;;;;;;5002062;28;20026;-81
2023/02/22 10:39:32;;;;;;;1.23;1.20;;;11.40;99.90;;;;;;5010572;28;20032;-82
2023/02/22 10:42:04;;;;;;;2.47;2.28;;;11.70;99.90;;;;;;4971221;28;20034;-80
2023/02/22 10:44:34;;;;;;;1.30;1.20;;;11.70;99.90;;;;;;4979685;28;20057;-80
2023/02/22 10:47:04;;;;;;;2.20;1.15;;;11.60;99.90;;;;;;5007904;28;20037;-79
2023/02/22 10:49:41;;;;;;;1.13;1.02;;;11.50;99.90;;;;;;5004669;28;20038;-81
2023/02/22 10:52:29;;;;;;;1.67;1.50;;;11.70;99.90;;;;;;5009803;28;20018;-80
2023/02/22 10:54:57;;;;;;;2.83;1.67;;;11.90;99.90;;;;;;4999224;28;20034;-81
2023/02/22 10:57:45;;;;;;;0.52;0.52;;;11.90;99.90;;;;;;5002302;28;20026;-81
2023/02/22 11:00:19;;;;;;;4.65;3.05;;;12.00;99.90;;;;;;4996612;28;20033;-80
2023/02/22 11:02:56;;;;;;;7.32;2.80;;;11.80;99.90;;;;;;4999622;28;20180;-82
2023/02/22 11:05:35;;;;;;;1.15;0.90;;;11.60;99.90;;;;;;4985571;28;20030;-81
2023/02/22 11:08:20;;;;;;;0.65;0.65;;;11.40;99.90;;;;;;5002260;28;20034;-80
2023/02/22 11:10:52;;;;;;;7.22;1.92;;;11.60;99.90;;;;;;5002524;28;20142;-82
2023/02/22 11:13:28;;;;;;;0.82;0.82;;;11.60;99.90;;;;;;5001244;28;20067;-80
2023/02/22 11:15:59;;;;;;;0.57;0.57;;;11.50;99.90;;;;;;5000583;28;20783;-82
2023/02/22 11:18:34;;;;;;;1.10;1.08;;;11.60;99.90;;;;;;4984198;28;20019;-80
2023/02/22 11:21:03;;;;;;;0.70;0.70;;;11.80;99.90;;;;;;4985413;28;20034;-81
2023/02/22 11:23:29;;;;;;;0.68;0.68;;;11.70;99.90;;;;;;5002984;28;20409;-80
2023/02/22 11:26:16;;;;;;;1.60;1.57;;;11.80;99.90;;;;;;4984613;28;20061;-81
2023/02/22 11:28:49;;;;;;;1.85;1.30;;;11.80;99.90;;;;;;5001039;28;20327;-81
2023/02/22 11:31:21;;;;;;;1.10;1.10;;;11.70;99.90;;;;;;4998499;28;20025;-81
2023/02/22 11:33:56;;;;;;;3.03;2.78;;;11.80;99.90;;;;;;5000582;28;20025;-80
2023/02/22 11:36:40;;;;;;;1.95;1.77;;;11.90;99.90;;;;;;5001031;28;20034;-81
2023/02/22 11:39:27;;;;;;;1.48;1.38;;;11.80;99.90;;;;;;4999740;28;20022;-80
2023/02/22 11:41:55;;;;;;;5.38;2.92;;;11.80;99.90;;;;;;5000611;28;20025;-81
2023/02/22 11:44:28;;;;;;;1.15;1.15;;;11.70;99.90;;;;;;5000183;28;20049;-80
2023/02/22 11:47:01;;;;;;;1.75;1.25;;;11.60;99.90;;;;;;4990037;28;20038;-80
2023/02/22 11:49:37;;;;;;;0.45;0.45;;;11.70;99.90;;;;;;5001700;28;20022;-81
2023/02/22 11:52:11;;;;;;;1.33;0.50;;;11.80;99.90;;;;;;4985260;28;20029;-81
2023/02/22 11:55:11;;;;;;;1.45;0.98;;;11.80;99.90;;;;;;5013918;28;20056;-81
2023/02/22 11:57:41;;;;;;;1.08;0.60;;;12.30;99.90;;;;;;5004131;28;20200;-81
2023/02/22 12:00:34;;;;;;;2.58;1.42;;;12.40;99.90;;;;;;5001399;28;20033;-81
2023/02/22 12:03:26;;;;;;;0.95;0.95;;;12.40;99.90;;;;;;5001234;28;20123;-82
2023/02/22 12:05:58;;;;;;;1.55;0.98;;;12.30;99.90;;;;;;4995332;28;20505;-81
2023/02/22 12:08:44;;;;;;;0.70;0.70;;;12.00;99.90;;;;;;5002260;28;20084;-82
2023/02/22 12:11:21;;;;;;;0.65;0.65;;;11.90;99.90;;;;;;4988504;28;20568;-81
2023/02/22 12:14:12;;;;;;;1.95;1.70;;;11.90;99.90;;;;;;5000100;28;20042;-81
2023/02/22 12:16:58;;;;;;;0.95;0.88;;;11.70;99.90;;;;;;5005288;28;20029;-80
2023/02/22 12:19:36;;;;;;;2.27;1.47;;;11.80;99.90;;;;;;5002507;28;20026;-80
2023/02/22 12:22:27;;;;;;;0.28;0.28;;;11.60;99.90;;;;;;5007993;28;20053;-81
2023/02/22 12:25:05;;;;;;;0.93;0.77;;;11.40;99.90;;;;;;4989258;28;20092;-80
2023/02/22 12:27:41;;;;;;;0.90;0.90;;;11.20;99.90;;;;;;5001770;28;20040;-81
2023/02/22 12:30:18;;;;;;;1.05;0.77;;;11.30;99.90;;;;;;5012943;28;20029;-82
2023/02/22 12:32:52;;;;;;;0.63;0.63;;;11.40;99.90;;;;;;4988814;28;20035;-82
2023/02/22 12:35:20;;;;;;;0.47;0.47;;;11.40;99.90;;;;;;5004805;28;20156;-82
2023/02/22 12:38:21;;;;;;;0.93;0.82;;;11.30;99.90;;;;;;5006401;28;20034;-81
2023/02/22 12:41:17;;;;;;;1.10;1.10;;;11.20;99.90;;;;;;5000097;28;20026;-81
2023/02/22 12:44:08;;;;;;;2.80;0.82;;;11.10;99.90;;;;;;4994213;28;20096;-81
2023/02/22 12:46:42;;;;;;;1.40;0.85;;;11.10;99.90;;;;;;5004781;28;20126;-80
2023/02/22 12:49:29;;;;;;;0.40;0.40;;;11.20;99.90;;;;;;5009947;28;20053;-82
2023/02/22 12:52:07;;;;;;;1.00;0.98;;;11.40;99.90;;;;;;4973511;28;20490;-81
2023/02/22 12:54:47;;;;;;;0.60;0.60;;;11.50;99.90;;;;;;5009394;28;20089;-80
2023/02/22 12:57:33;;;;;;;3.10;1.88;;;11.50;99.90;;;;;;5006157;28;20502;-81
2023/02/22 13:00:19;;;;;;;0.43;0.25;;;11.70;99.90;;;;;;4997158;28;20033;-80
2023/02/22 13:03:03;;;;;;;0.93;0.93;;;11.60;99.90;;;;;;5002956;28;20152;-80
2023/02/22 13:05:35;;;;;;;0.68;0.68;;;11.60;99.90;;;;;;5009121;28;20026;-81
2023/02/22 13:08:50;;;;;;;0.93;0.93;;;11.60;99.90;;;;;;5002580;28;20070;-80